sensor_id;sensor_type;location;lat;lon;timestamp;P1;durP1;ratioP1;P2;durP2;ratioP2
46875;SDS011;32866;50.160;14.768;2023-02-24T00:00:24;65.13;;;35.30;;
46875;SDS011;32866;50.160;14.768;2023-02-24T00:03:02;61.17;;;33.43;;
46875;SDS011;32866;50.160;14.768;2023-02-24T00:05:45;63.60;;;34.10;;
46875;SDS011;32866;50.160;14.768;2023-02-24T00:08:18;63.37;;;35.67;;
46875;SDS011;32866;50.160;14.768;2023-02-24T00:10:49;62.37;;;34.07;;
46875;SDS011;32866;50.160;14.768;2023-02-24T00:13:38;59.40;;;32.73;;
46875;SDS011;32866;50.160;14.768;2023-02-24T00:16:26;61.63;;;33.20;;
46875;SDS011;32866;50.160;14.768;2023-02-24T00:19:07;65.87;;;36.00;;
46875;SDS011;32866;50.160;14.768;2023-02-24T00:22:13;68.78;;;35.90;;
46875;SDS011;32866;50.160;14.768;2023-02-24T00:24:53;67.57;;;35.20;;
46875;SDS011;32866;50.160;14.768;2023-02-24T00:27:25;68.27;;;35.13;;
46875;SDS011;32866;50.160;14.768;2023-02-24T00:29:57;67.77;;;37.93;;
46875;SDS011;32866;50.160;14.768;2023-02-24T00:32:32;66.13;;;34.87;;
46875;SDS011;32866;50.160;14.768;2023-02-24T00:35:00;71.63;;;38.53;;
46875;SDS011;32866;50.160;14.768;2023-02-24T00:37:33;74.27;;;37.47;;
46875;SDS011;32866;50.160;14.768;2023-02-24T00:40:03;70.10;;;36.97;;
46875;SDS011;32866;50.160;14.768;2023-02-24T00:42:42;72.27;;;35.87;;
46875;SDS011;32866;50.160;14.768;2023-02-24T00:45:14;60.50;;;35.10;;
46875;SDS011;32866;50.160;14.768;2023-02-24T00:47:54;72.13;;;36.73;;
46875;SDS011;32866;50.160;14.768;2023-02-24T00:50:45;78.00;;;37.70;;
46875;SDS011;32866;50.160;14.768;2023-02-24T00:53:38;69.47;;;35.80;;
46875;SDS011;32866;50.160;14.768;2023-02-24T00:56:10;70.73;;;34.80;;
46875;SDS011;32866;50.160;14.768;2023-02-24T00:59:10;64.47;;;34.10;;
46875;SDS011;32866;50.160;14.768;2023-02-24T01:01:48;71.33;;;36.20;;
46875;SDS011;32866;50.160;14.768;2023-02-24T01:04:21;61.70;;;33.27;;
46875;SDS011;32866;50.160;14.768;2023-02-24T01:06:57;61.57;;;35.23;;
46875;SDS011;32866;50.160;14.768;2023-02-24T01:09:30;58.13;;;34.20;;
46875;SDS011;32866;50.160;14.768;2023-02-24T01:12:22;66.50;;;35.23;;
46875;SDS011;32866;50.160;14.768;2023-02-24T01:15:15;67.90;;;35.87;;
46875;SDS011;32866;50.160;14.768;2023-02-24T01:17:52;62.90;;;33.37;;
46875;SDS011;32866;50.160;14.768;2023-02-24T01:20:23;60.60;;;34.13;;
46875;SDS011;32866;50.160;14.768;2023-02-24T01:23:23;61.77;;;35.43;;
46875;SDS011;32866;50.160;14.768;2023-02-24T01:25:50;67.37;;;36.03;;
46875;SDS011;32866;50.160;14.768;2023-02-24T01:28:24;62.90;;;34.50;;
46875;SDS011;32866;50.160;14.768;2023-02-24T01:30:52;64.43;;;34.80;;
46875;SDS011;32866;50.160;14.768;2023-02-24T01:33:39;66.07;;;35.05;;
46875;SDS011;32866;50.160;14.768;2023-02-24T01:36:13;63.57;;;34.30;;
46875;SDS011;32866;50.160;14.768;2023-02-24T01:39:10;64.47;;;35.10;;
46875;SDS011;32866;50.160;14.768;2023-02-24T01:41:44;67.90;;;35.20;;
46875;SDS011;32866;50.160;14.768;2023-02-24T01:47:12;65.70;;;34.90;;
46875;SDS011;32866;50.160;14.768;2023-02-24T01:49:48;65.57;;;35.20;;
46875;SDS011;32866;50.160;14.768;2023-02-24T01:52:28;62.53;;;34.37;;
46875;SDS011;32866;50.160;14.768;2023-02-24T01:55:15;68.17;;;34.83;;
46875;SDS011;32866;50.160;14.768;2023-02-24T01:57:56;68.20;;;36.38;;
46875;SDS011;32866;50.160;14.768;2023-02-24T02:03:27;66.47;;;36.93;;
46875;SDS011;32866;50.160;14.768;2023-02-24T02:06:09;67.20;;;37.80;;
46875;SDS011;32866;50.160;14.768;2023-02-24T02:11:22;66.07;;;36.93;;
46875;SDS011;32866;50.160;14.768;2023-02-24T02:13:57;66.43;;;35.30;;
46875;SDS011;32866;50.160;14.768;2023-02-24T02:16:44;62.67;;;34.10;;
46875;SDS011;32866;50.160;14.768;2023-02-24T02:19:35;69.20;;;35.17;;
46875;SDS011;32866;50.160;14.768;2023-02-24T02:36:54;60.42;;;33.83;;
46875;SDS011;32866;50.160;14.768;2023-02-24T02:42:42;73.10;;;34.57;;
46875;SDS011;32866;50.160;14.768;2023-02-24T02:45:33;65.60;;;34.47;;
46875;SDS011;32866;50.160;14.768;2023-02-24T02:48:27;63.10;;;35.33;;
46875;SDS011;32866;50.160;14.768;2023-02-24T02:51:20;63.40;;;35.43;;
46875;SDS011;32866;50.160;14.768;2023-02-24T02:54:39;65.67;;;35.47;;
46875;SDS011;32866;50.160;14.768;2023-02-24T02:57:29;63.07;;;34.77;;
46875;SDS011;32866;50.160;14.768;2023-02-24T03:00:17;61.10;;;34.20;;
46875;SDS011;32866;50.160;14.768;2023-02-24T03:03:31;67.13;;;34.37;;
46875;SDS011;32866;50.160;14.768;2023-02-24T03:06:16;60.50;;;33.47;;
46875;SDS011;32866;50.160;14.768;2023-02-24T03:09:28;72.13;;;35.63;;
46875;SDS011;32866;50.160;14.768;2023-02-24T03:12:15;67.10;;;37.92;;
46875;SDS011;32866;50.160;14.768;2023-02-24T03:15:07;71.30;;;34.63;;
46875;SDS011;32866;50.160;14.768;2023-02-24T03:17:52;61.73;;;35.30;;
46875;SDS011;32866;50.160;14.768;2023-02-24T03:20:41;62.00;;;34.10;;
46875;SDS011;32866;50.160;14.768;2023-02-24T03:23:21;60.87;;;33.57;;
46875;SDS011;32866;50.160;14.768;2023-02-24T03:38:04;69.17;;;33.93;;
46875;SDS011;32866;50.160;14.768;2023-02-24T03:40:37;67.17;;;34.03;;
46875;SDS011;32866;50.160;14.768;2023-02-24T03:43:27;55.20;;;32.63;;
46875;SDS011;32866;50.160;14.768;2023-02-24T03:46:29;52.40;;;28.60;;
46875;SDS011;32866;50.160;14.768;2023-02-24T03:49:09;49.30;;;27.90;;
46875;SDS011;32866;50.160;14.768;2023-02-24T03:58:51;61.27;;;34.53;;
46875;SDS011;32866;50.160;14.768;2023-02-24T04:04:31;57.50;;;31.07;;
46875;SDS011;32866;50.160;14.768;2023-02-24T04:10:50;69.43;;;35.57;;
46875;SDS011;32866;50.160;14.768;2023-02-24T04:13:39;66.60;;;36.27;;
46875;SDS011;32866;50.160;14.768;2023-02-24T04:16:26;78.63;;;38.17;;
46875;SDS011;32866;50.160;14.768;2023-02-24T04:19:02;71.17;;;36.30;;
46875;SDS011;32866;50.160;14.768;2023-02-24T04:24:59;67.67;;;34.80;;
46875;SDS011;32866;50.160;14.768;2023-02-24T04:28:18;67.53;;;35.83;;
46875;SDS011;32866;50.160;14.768;2023-02-24T04:31:17;64.03;;;33.53;;
46875;SDS011;32866;50.160;14.768;2023-02-24T04:33:49;66.17;;;34.73;;
46875;SDS011;32866;50.160;14.768;2023-02-24T04:36:42;68.67;;;37.20;;
46875;SDS011;32866;50.160;14.768;2023-02-24T04:39:20;64.80;;;34.57;;
46875;SDS011;32866;50.160;14.768;2023-02-24T04:41:49;61.73;;;35.00;;
46875;SDS011;32866;50.160;14.768;2023-02-24T04:44:21;66.07;;;36.47;;
46875;SDS011;32866;50.160;14.768;2023-02-24T04:47:03;67.67;;;35.23;;
46875;SDS011;32866;50.160;14.768;2023-02-24T04:49:45;70.20;;;35.77;;
46875;SDS011;32866;50.160;14.768;2023-02-24T04:53:22;74.50;;;36.33;;
46875;SDS011;32866;50.160;14.768;2023-02-24T04:57:00;65.07;;;35.87;;
46875;SDS011;32866;50.160;14.768;2023-02-24T05:00:04;72.37;;;34.37;;
46875;SDS011;32866;50.160;14.768;2023-02-24T05:02:56;66.85;;;33.75;;
46875;SDS011;32866;50.160;14.768;2023-02-24T05:05:37;59.03;;;33.57;;
46875;SDS011;32866;50.160;14.768;2023-02-24T05:11:30;58.90;;;32.23;;
46875;SDS011;32866;50.160;14.768;2023-02-24T05:21:08;62.93;;;34.03;;
46875;SDS011;32866;50.160;14.768;2023-02-24T05:24:49;67.38;;;35.17;;
46875;SDS011;32866;50.160;14.768;2023-02-24T05:27:46;61.57;;;32.67;;
46875;SDS011;32866;50.160;14.768;2023-02-24T05:30:38;64.43;;;32.80;;
46875;SDS011;32866;50.160;14.768;2023-02-24T05:33:20;58.27;;;31.07;;
46875;SDS011;32866;50.160;14.768;2023-02-24T05:36:39;56.83;;;32.27;;
46875;SDS011;32866;50.160;14.768;2023-02-24T05:39:47;58.13;;;32.90;;
46875;SDS011;32866;50.160;14.768;2023-02-24T05:46:01;58.30;;;33.00;;
46875;SDS011;32866;50.160;14.768;2023-02-24T05:49:13;53.93;;;32.43;;
46875;SDS011;32866;50.160;14.768;2023-02-24T05:52:10;60.67;;;32.10;;
46875;SDS011;32866;50.160;14.768;2023-02-24T05:55:23;61.17;;;33.57;;
46875;SDS011;32866;50.160;14.768;2023-02-24T05:58:50;59.53;;;31.63;;
46875;SDS011;32866;50.160;14.768;2023-02-24T06:02:25;58.30;;;31.97;;
46875;SDS011;32866;50.160;14.768;2023-02-24T06:05:58;62.90;;;32.83;;
46875;SDS011;32866;50.160;14.768;2023-02-24T06:23:47;64.47;;;34.40;;
46875;SDS011;32866;50.160;14.768;2023-02-24T06:27:00;61.63;;;32.90;;
46875;SDS011;32866;50.160;14.768;2023-02-24T06:30:14;65.27;;;33.53;;
46875;SDS011;32866;50.160;14.768;2023-02-24T06:32:42;66.33;;;35.40;;
46875;SDS011;32866;50.160;14.768;2023-02-24T06:37:52;65.30;;;33.37;;
46875;SDS011;32866;50.160;14.768;2023-02-24T06:40:28;60.67;;;35.30;;
46875;SDS011;32866;50.160;14.768;2023-02-24T06:42:55;64.17;;;33.97;;
46875;SDS011;32866;50.160;14.768;2023-02-24T06:51:12;57.20;;;33.03;;
46875;SDS011;32866;50.160;14.768;2023-02-24T06:53:39;57.57;;;33.90;;
46875;SDS011;32866;50.160;14.768;2023-02-24T06:58:44;53.80;;;30.57;;
46875;SDS011;32866;50.160;14.768;2023-02-24T07:01:12;57.03;;;32.47;;
46875;SDS011;32866;50.160;14.768;2023-02-24T07:03:38;51.80;;;31.43;;
46875;SDS011;32866;50.160;14.768;2023-02-24T07:06:05;56.30;;;30.98;;
46875;SDS011;32866;50.160;14.768;2023-02-24T07:08:44;49.00;;;29.80;;
46875;SDS011;32866;50.160;14.768;2023-02-24T07:11:11;49.90;;;30.30;;
46875;SDS011;32866;50.160;14.768;2023-02-24T07:13:38;53.17;;;28.97;;
46875;SDS011;32866;50.160;14.768;2023-02-24T07:16:06;51.63;;;30.13;;
46875;SDS011;32866;50.160;14.768;2023-02-24T07:18:35;51.60;;;28.77;;
46875;SDS011;32866;50.160;14.768;2023-02-24T07:21:04;60.67;;;32.87;;
46875;SDS011;32866;50.160;14.768;2023-02-24T07:23:35;56.23;;;30.73;;
46875;SDS011;32866;50.160;14.768;2023-02-24T07:26:12;59.37;;;32.63;;
46875;SDS011;32866;50.160;14.768;2023-02-24T07:28:40;53.03;;;32.03;;
46875;SDS011;32866;50.160;14.768;2023-02-24T07:31:07;57.87;;;33.40;;
46875;SDS011;32866;50.160;14.768;2023-02-24T07:33:39;62.43;;;36.97;;
46875;SDS011;32866;50.160;14.768;2023-02-24T07:36:09;60.10;;;34.10;;
46875;SDS011;32866;50.160;14.768;2023-02-24T07:38:43;54.17;;;32.87;;
46875;SDS011;32866;50.160;14.768;2023-02-24T07:41:13;55.60;;;31.20;;
46875;SDS011;32866;50.160;14.768;2023-02-24T07:43:43;58.00;;;31.90;;
46875;SDS011;32866;50.160;14.768;2023-02-24T07:46:14;59.17;;;34.10;;
46875;SDS011;32866;50.160;14.768;2023-02-24T07:48:43;51.17;;;31.20;;
46875;SDS011;32866;50.160;14.768;2023-02-24T07:51:09;57.35;;;32.45;;
46875;SDS011;32866;50.160;14.768;2023-02-24T07:53:36;52.47;;;31.20;;
46875;SDS011;32866;50.160;14.768;2023-02-24T07:56:07;53.27;;;33.27;;
46875;SDS011;32866;50.160;14.768;2023-02-24T07:58:42;58.73;;;30.73;;
46875;SDS011;32866;50.160;14.768;2023-02-24T08:01:15;46.20;;;26.93;;
46875;SDS011;32866;50.160;14.768;2023-02-24T08:03:50;49.87;;;27.70;;
46875;SDS011;32866;50.160;14.768;2023-02-24T08:10:00;52.87;;;31.13;;
46875;SDS011;32866;50.160;14.768;2023-02-24T08:12:38;57.00;;;32.33;;
46875;SDS011;32866;50.160;14.768;2023-02-24T08:15:08;35.57;;;21.60;;
46875;SDS011;32866;50.160;14.768;2023-02-24T08:17:41;48.70;;;28.23;;
46875;SDS011;32866;50.160;14.768;2023-02-24T08:20:07;36.50;;;21.43;;
46875;SDS011;32866;50.160;14.768;2023-02-24T08:22:43;30.43;;;18.10;;
46875;SDS011;32866;50.160;14.768;2023-02-24T08:25:13;43.70;;;26.63;;
46875;SDS011;32866;50.160;14.768;2023-02-24T08:27:42;52.33;;;31.03;;
46875;SDS011;32866;50.160;14.768;2023-02-24T08:30:09;44.70;;;28.27;;
46875;SDS011;32866;50.160;14.768;2023-02-24T08:32:48;41.40;;;26.53;;
46875;SDS011;32866;50.160;14.768;2023-02-24T08:35:20;43.30;;;26.97;;
46875;SDS011;32866;50.160;14.768;2023-02-24T08:37:50;46.27;;;26.87;;
46875;SDS011;32866;50.160;14.768;2023-02-24T08:42:57;42.43;;;23.83;;
46875;SDS011;32866;50.160;14.768;2023-02-24T08:45:58;42.27;;;25.67;;
46875;SDS011;32866;50.160;14.768;2023-02-24T08:48:43;34.67;;;22.53;;
46875;SDS011;32866;50.160;14.768;2023-02-24T08:53:40;43.67;;;23.67;;
46875;SDS011;32866;50.160;14.768;2023-02-24T08:56:07;37.58;;;22.20;;
46875;SDS011;32866;50.160;14.768;2023-02-24T08:58:44;37.57;;;18.67;;
46875;SDS011;32866;50.160;14.768;2023-02-24T09:01:16;27.33;;;16.33;;
46875;SDS011;32866;50.160;14.768;2023-02-24T09:03:47;27.50;;;16.47;;
46875;SDS011;32866;50.160;14.768;2023-02-24T09:06:17;30.13;;;18.87;;
46875;SDS011;32866;50.160;14.768;2023-02-24T09:08:49;30.70;;;17.60;;
46875;SDS011;32866;50.160;14.768;2023-02-24T09:11:36;39.93;;;18.47;;
46875;SDS011;32866;50.160;14.768;2023-02-24T09:14:02;27.80;;;16.48;;
46875;SDS011;32866;50.160;14.768;2023-02-24T09:16:28;25.77;;;15.83;;
46875;SDS011;32866;50.160;14.768;2023-02-24T09:18:54;25.17;;;15.00;;
46875;SDS011;32866;50.160;14.768;2023-02-24T09:21:37;25.90;;;15.30;;
46875;SDS011;32866;50.160;14.768;2023-02-24T09:24:23;25.97;;;14.60;;
46875;SDS011;32866;50.160;14.768;2023-02-24T09:26:55;22.73;;;14.33;;
46875;SDS011;32866;50.160;14.768;2023-02-24T09:29:29;22.63;;;14.67;;
46875;SDS011;32866;50.160;14.768;2023-02-24T09:32:00;23.53;;;13.33;;
46875;SDS011;32866;50.160;14.768;2023-02-24T09:34:36;21.75;;;14.75;;
46875;SDS011;32866;50.160;14.768;2023-02-24T09:37:11;24.27;;;13.73;;
46875;SDS011;32866;50.160;14.768;2023-02-24T09:39:52;18.43;;;11.83;;
46875;SDS011;32866;50.160;14.768;2023-02-24T09:42:20;18.08;;;12.63;;
46875;SDS011;32866;50.160;14.768;2023-02-24T09:45:04;20.20;;;12.23;;
46875;SDS011;32866;50.160;14.768;2023-02-24T09:50:23;22.17;;;13.03;;
46875;SDS011;32866;50.160;14.768;2023-02-24T09:53:10;24.17;;;15.43;;
46875;SDS011;32866;50.160;14.768;2023-02-24T09:55:43;20.83;;;14.20;;
46875;SDS011;32866;50.160;14.768;2023-02-24T10:07:04;24.13;;;14.40;;
46875;SDS011;32866;50.160;14.768;2023-02-24T10:09:36;21.47;;;13.47;;
46875;SDS011;32866;50.160;14.768;2023-02-24T10:12:43;21.97;;;13.30;;
46875;SDS011;32866;50.160;14.768;2023-02-24T10:15:16;21.60;;;14.33;;
46875;SDS011;32866;50.160;14.768;2023-02-24T10:17:46;23.07;;;14.63;;
46875;SDS011;32866;50.160;14.768;2023-02-24T10:20:18;25.23;;;15.03;;
46875;SDS011;32866;50.160;14.768;2023-02-24T10:23:06;25.13;;;15.90;;
46875;SDS011;32866;50.160;14.768;2023-02-24T10:31:17;24.53;;;14.87;;
46875;SDS011;32866;50.160;14.768;2023-02-24T10:33:55;18.13;;;11.63;;
46875;SDS011;32866;50.160;14.768;2023-02-24T10:36:25;18.25;;;12.23;;
46875;SDS011;32866;50.160;14.768;2023-02-24T10:39:19;19.73;;;13.02;;
46875;SDS011;32866;50.160;14.768;2023-02-24T10:41:59;16.38;;;10.85;;
46875;SDS011;32866;50.160;14.768;2023-02-24T10:45:19;19.98;;;12.40;;
46875;SDS011;32866;50.160;14.768;2023-02-24T10:48:22;19.98;;;12.32;;
46875;SDS011;32866;50.160;14.768;2023-02-24T10:51:10;20.40;;;13.02;;
46875;SDS011;32866;50.160;14.768;2023-02-24T10:53:48;18.02;;;11.77;;
46875;SDS011;32866;50.160;14.768;2023-02-24T10:56:50;23.50;;;13.75;;
46875;SDS011;32866;50.160;14.768;2023-02-24T10:59:55;25.80;;;15.15;;
46875;SDS011;32866;50.160;14.768;2023-02-24T11:02:55;22.80;;;15.37;;
46875;SDS011;32866;50.160;14.768;2023-02-24T11:05:38;26.10;;;14.73;;
46875;SDS011;32866;50.160;14.768;2023-02-24T11:11:17;27.17;;;14.10;;
46875;SDS011;32866;50.160;14.768;2023-02-24T11:13:52;19.20;;;12.70;;
46875;SDS011;32866;50.160;14.768;2023-02-24T11:16:49;25.90;;;14.17;;
46875;SDS011;32866;50.160;14.768;2023-02-24T11:19:40;24.70;;;11.87;;
46875;SDS011;32866;50.160;14.768;2023-02-24T11:22:15;14.43;;;7.50;;
46875;SDS011;32866;50.160;14.768;2023-02-24T11:24:44;11.85;;;8.18;;
46875;SDS011;32866;50.160;14.768;2023-02-24T11:27:26;11.15;;;7.45;;
46875;SDS011;32866;50.160;14.768;2023-02-24T11:32:46;11.23;;;7.75;;
46875;SDS011;32866;50.160;14.768;2023-02-24T11:41:16;12.65;;;6.30;;
46875;SDS011;32866;50.160;14.768;2023-02-24T11:43:44;14.93;;;7.85;;
46875;SDS011;32866;50.160;14.768;2023-02-24T11:46:42;14.52;;;7.82;;
46875;SDS011;32866;50.160;14.768;2023-02-24T11:49:24;14.98;;;8.88;;
46875;SDS011;32866;50.160;14.768;2023-02-24T11:51:54;13.10;;;7.67;;
46875;SDS011;32866;50.160;14.768;2023-02-24T11:54:21;12.05;;;8.07;;
46875;SDS011;32866;50.160;14.768;2023-02-24T11:56:51;9.50;;;6.63;;
46875;SDS011;32866;50.160;14.768;2023-02-24T11:59:38;13.73;;;7.15;;
46875;SDS011;32866;50.160;14.768;2023-02-24T12:07:37;12.38;;;7.85;;
46875;SDS011;32866;50.160;14.768;2023-02-24T12:10:30;13.30;;;8.88;;
46875;SDS011;32866;50.160;14.768;2023-02-24T12:16:00;13.30;;;7.82;;
46875;SDS011;32866;50.160;14.768;2023-02-24T12:22:13;14.27;;;7.88;;
46875;SDS011;32866;50.160;14.768;2023-02-24T12:24:48;6.80;;;3.50;;
46875;SDS011;32866;50.160;14.768;2023-02-24T12:33:17;6.73;;;4.27;;
46875;SDS011;32866;50.160;14.768;2023-02-24T12:39:17;4.63;;;3.00;;
46875;SDS011;32866;50.160;14.768;2023-02-24T12:41:49;12.10;;;5.37;;
46875;SDS011;32866;50.160;14.768;2023-02-24T12:47:16;5.30;;;2.80;;
46875;SDS011;32866;50.160;14.768;2023-02-24T12:58:20;5.30;;;2.93;;
46875;SDS011;32866;50.160;14.768;2023-02-24T13:01:06;7.47;;;2.45;;
46875;SDS011;32866;50.160;14.768;2023-02-24T13:09:31;5.07;;;2.70;;
46875;SDS011;32866;50.160;14.768;2023-02-24T13:12:15;8.18;;;2.70;;
46875;SDS011;32866;50.160;14.768;2023-02-24T13:14:51;4.50;;;3.03;;
46875;SDS011;32866;50.160;14.768;2023-02-24T13:19:44;5.07;;;2.50;;
46875;SDS011;32866;50.160;14.768;2023-02-24T13:27:26;11.43;;;3.85;;
46875;SDS011;32866;50.160;14.768;2023-02-24T13:30:03;5.07;;;2.30;;
46875;SDS011;32866;50.160;14.768;2023-02-24T13:32:39;4.20;;;2.27;;
46875;SDS011;32866;50.160;14.768;2023-02-24T13:37:40;6.37;;;3.60;;
46875;SDS011;32866;50.160;14.768;2023-02-24T13:45:29;8.43;;;4.10;;
46875;SDS011;32866;50.160;14.768;2023-02-24T14:04:49;5.60;;;2.87;;
46875;SDS011;32866;50.160;14.768;2023-02-24T14:07:21;8.37;;;3.57;;
46875;SDS011;32866;50.160;14.768;2023-02-24T14:09:55;5.23;;;3.70;;
46875;SDS011;32866;50.160;14.768;2023-02-24T14:12:24;9.27;;;3.93;;
46875;SDS011;32866;50.160;14.768;2023-02-24T14:14:51;5.63;;;3.03;;
46875;SDS011;32866;50.160;14.768;2023-02-24T14:19:53;6.37;;;3.23;;
46875;SDS011;32866;50.160;14.768;2023-02-24T14:22:19;6.90;;;3.43;;
46875;SDS011;32866;50.160;14.768;2023-02-24T14:24:45;11.18;;;3.83;;
46875;SDS011;32866;50.160;14.768;2023-02-24T14:27:23;7.85;;;3.78;;
46875;SDS011;32866;50.160;14.768;2023-02-24T14:29:50;11.33;;;3.77;;
46875;SDS011;32866;50.160;14.768;2023-02-24T14:34:47;8.50;;;3.20;;
46875;SDS011;32866;50.160;14.768;2023-02-24T14:37:12;7.00;;;3.28;;
46875;SDS011;32866;50.160;14.768;2023-02-24T14:39:47;6.93;;;3.43;;
46875;SDS011;32866;50.160;14.768;2023-02-24T14:42:17;7.13;;;3.33;;
46875;SDS011;32866;50.160;14.768;2023-02-24T14:44:48;4.70;;;2.77;;
46875;SDS011;32866;50.160;14.768;2023-02-24T14:47:19;7.37;;;3.20;;
46875;SDS011;32866;50.160;14.768;2023-02-24T14:49:59;9.37;;;2.90;;
46875;SDS011;32866;50.160;14.768;2023-02-24T14:52:29;5.53;;;3.40;;
46875;SDS011;32866;50.160;14.768;2023-02-24T14:55:09;5.68;;;3.15;;
46875;SDS011;32866;50.160;14.768;2023-02-24T14:57:45;5.67;;;3.60;;
46875;SDS011;32866;50.160;14.768;2023-02-24T15:00:26;5.63;;;3.00;;
46875;SDS011;32866;50.160;14.768;2023-02-24T15:05:37;6.00;;;2.80;;
46875;SDS011;32866;50.160;14.768;2023-02-24T15:08:05;4.47;;;2.90;;
46875;SDS011;32866;50.160;14.768;2023-02-24T15:10:50;5.17;;;2.70;;
46875;SDS011;32866;50.160;14.768;2023-02-24T15:13:17;8.85;;;3.38;;
46875;SDS011;32866;50.160;14.768;2023-02-24T15:15:50;5.77;;;2.93;;
46875;SDS011;32866;50.160;14.768;2023-02-24T15:18:23;11.20;;;3.75;;
46875;SDS011;32866;50.160;14.768;2023-02-24T15:21:00;6.13;;;3.30;;
46875;SDS011;32866;50.160;14.768;2023-02-24T15:23:32;6.83;;;3.67;;
46875;SDS011;32866;50.160;14.768;2023-02-24T15:25:59;7.37;;;4.30;;
46875;SDS011;32866;50.160;14.768;2023-02-24T15:28:33;7.72;;;4.40;;
46875;SDS011;32866;50.160;14.768;2023-02-24T15:31:01;10.67;;;5.00;;
46875;SDS011;32866;50.160;14.768;2023-02-24T15:33:42;7.30;;;4.13;;
46875;SDS011;32866;50.160;14.768;2023-02-24T15:36:10;4.17;;;2.93;;
46875;SDS011;32866;50.160;14.768;2023-02-24T15:38:42;7.10;;;3.70;;
46875;SDS011;32866;50.160;14.768;2023-02-24T15:41:09;5.70;;;3.27;;
46875;SDS011;32866;50.160;14.768;2023-02-24T15:46:28;10.77;;;4.30;;
46875;SDS011;32866;50.160;14.768;2023-02-24T15:48:58;9.63;;;3.87;;
46875;SDS011;32866;50.160;14.768;2023-02-24T15:54:07;8.67;;;4.63;;
46875;SDS011;32866;50.160;14.768;2023-02-24T15:56:37;11.00;;;4.47;;
46875;SDS011;32866;50.160;14.768;2023-02-24T15:59:04;10.17;;;4.20;;
46875;SDS011;32866;50.160;14.768;2023-02-24T16:01:30;11.60;;;4.88;;
46875;SDS011;32866;50.160;14.768;2023-02-24T16:03:57;8.47;;;5.23;;
46875;SDS011;32866;50.160;14.768;2023-02-24T16:06:23;17.67;;;6.70;;
46875;SDS011;32866;50.160;14.768;2023-02-24T16:08:49;10.53;;;5.50;;
46875;SDS011;32866;50.160;14.768;2023-02-24T16:11:19;10.87;;;4.93;;
46875;SDS011;32866;50.160;14.768;2023-02-24T16:14:07;8.77;;;4.57;;
46875;SDS011;32866;50.160;14.768;2023-02-24T16:16:38;8.37;;;4.20;;
46875;SDS011;32866;50.160;14.768;2023-02-24T16:19:05;6.63;;;4.13;;
46875;SDS011;32866;50.160;14.768;2023-02-24T16:23:56;7.33;;;3.77;;
46875;SDS011;32866;50.160;14.768;2023-02-24T16:26:22;9.40;;;4.20;;
46875;SDS011;32866;50.160;14.768;2023-02-24T16:28:50;12.32;;;4.22;;
46875;SDS011;32866;50.160;14.768;2023-02-24T16:31:18;7.07;;;3.30;;
46875;SDS011;32866;50.160;14.768;2023-02-24T16:36:11;7.33;;;4.67;;
46875;SDS011;32866;50.160;14.768;2023-02-24T16:38:37;11.13;;;4.33;;
46875;SDS011;32866;50.160;14.768;2023-02-24T16:41:06;6.88;;;3.78;;
46875;SDS011;32866;50.160;14.768;2023-02-24T16:43:31;9.10;;;4.67;;
46875;SDS011;32866;50.160;14.768;2023-02-24T16:46:00;10.43;;;5.13;;
46875;SDS011;32866;50.160;14.768;2023-02-24T16:48:27;9.07;;;5.53;;
46875;SDS011;32866;50.160;14.768;2023-02-24T16:50:58;9.13;;;4.93;;
46875;SDS011;32866;50.160;14.768;2023-02-24T16:53:25;8.13;;;4.47;;
46875;SDS011;32866;50.160;14.768;2023-02-24T16:55:50;6.80;;;4.03;;
46875;SDS011;32866;50.160;14.768;2023-02-24T16:58:17;5.88;;;3.55;;
46875;SDS011;32866;50.160;14.768;2023-02-24T17:03:17;8.38;;;3.55;;
46875;SDS011;32866;50.160;14.768;2023-02-24T17:05:46;7.20;;;3.40;;
46875;SDS011;32866;50.160;14.768;2023-02-24T17:08:12;8.70;;;3.50;;
46875;SDS011;32866;50.160;14.768;2023-02-24T17:13:07;10.37;;;3.70;;
46875;SDS011;32866;50.160;14.768;2023-02-24T17:15:35;15.53;;;6.07;;
46875;SDS011;32866;50.160;14.768;2023-02-24T17:18:01;8.10;;;3.88;;
46875;SDS011;32866;50.160;14.768;2023-02-24T17:20:26;7.95;;;4.65;;
46875;SDS011;32866;50.160;14.768;2023-02-24T17:22:52;6.82;;;4.63;;
46875;SDS011;32866;50.160;14.768;2023-02-24T17:25:18;11.45;;;5.55;;
46875;SDS011;32866;50.160;14.768;2023-02-24T17:27:47;11.60;;;7.60;;
46875;SDS011;32866;50.160;14.768;2023-02-24T17:30:13;10.77;;;5.82;;
46875;SDS011;32866;50.160;14.768;2023-02-24T17:32:41;10.63;;;6.43;;
46875;SDS011;32866;50.160;14.768;2023-02-24T17:35:07;8.65;;;4.90;;
46875;SDS011;32866;50.160;14.768;2023-02-24T17:37:33;7.50;;;4.20;;
46875;SDS011;32866;50.160;14.768;2023-02-24T17:39:58;6.32;;;4.28;;
46875;SDS011;32866;50.160;14.768;2023-02-24T17:42:24;5.97;;;4.25;;
46875;SDS011;32866;50.160;14.768;2023-02-24T17:44:49;8.25;;;4.43;;
46875;SDS011;32866;50.160;14.768;2023-02-24T17:47:14;7.70;;;4.18;;
46875;SDS011;32866;50.160;14.768;2023-02-24T17:49:40;7.32;;;4.38;;
46875;SDS011;32866;50.160;14.768;2023-02-24T17:52:05;11.00;;;6.28;;
46875;SDS011;32866;50.160;14.768;2023-02-24T17:54:31;9.43;;;5.00;;
46875;SDS011;32866;50.160;14.768;2023-02-24T17:56:57;12.30;;;5.70;;
46875;SDS011;32866;50.160;14.768;2023-02-24T17:59:22;7.03;;;4.38;;
46875;SDS011;32866;50.160;14.768;2023-02-24T18:01:47;9.43;;;4.72;;
46875;SDS011;32866;50.160;14.768;2023-02-24T18:04:13;6.63;;;4.35;;
46875;SDS011;32866;50.160;14.768;2023-02-24T18:06:39;8.82;;;4.22;;
46875;SDS011;32866;50.160;14.768;2023-02-24T18:09:05;9.23;;;4.93;;
46875;SDS011;32866;50.160;14.768;2023-02-24T18:11:30;8.13;;;4.40;;
46875;SDS011;32866;50.160;14.768;2023-02-24T18:13:57;7.60;;;4.18;;
46875;SDS011;32866;50.160;14.768;2023-02-24T18:16:23;7.13;;;4.77;;
46875;SDS011;32866;50.160;14.768;2023-02-24T18:18:49;11.15;;;5.25;;
46875;SDS011;32866;50.160;14.768;2023-02-24T18:21:14;9.48;;;5.35;;
46875;SDS011;32866;50.160;14.768;2023-02-24T18:23:39;13.98;;;6.53;;
46875;SDS011;32866;50.160;14.768;2023-02-24T18:26:06;11.18;;;5.93;;
46875;SDS011;32866;50.160;14.768;2023-02-24T18:28:33;10.50;;;6.37;;
46875;SDS011;32866;50.160;14.768;2023-02-24T18:30:58;12.60;;;7.68;;
46875;SDS011;32866;50.160;14.768;2023-02-24T18:35:59;12.97;;;7.33;;
46875;SDS011;32866;50.160;14.768;2023-02-24T18:38:26;17.70;;;9.63;;
46875;SDS011;32866;50.160;14.768;2023-02-24T18:43:51;14.10;;;7.93;;
46875;SDS011;32866;50.160;14.768;2023-02-24T18:46:18;12.87;;;7.67;;
46875;SDS011;32866;50.160;14.768;2023-02-24T18:48:44;15.67;;;9.77;;
46875;SDS011;32866;50.160;14.768;2023-02-24T18:51:11;17.10;;;10.13;;
46875;SDS011;32866;50.160;14.768;2023-02-24T18:53:38;12.40;;;7.50;;
46875;SDS011;32866;50.160;14.768;2023-02-24T18:56:04;11.23;;;5.65;;
46875;SDS011;32866;50.160;14.768;2023-02-24T18:58:32;9.93;;;6.23;;
46875;SDS011;32866;50.160;14.768;2023-02-24T19:00:58;12.27;;;6.90;;
46875;SDS011;32866;50.160;14.768;2023-02-24T19:03:24;22.95;;;9.40;;
46875;SDS011;32866;50.160;14.768;2023-02-24T19:05:49;35.20;;;14.45;;